sensor_id;sensor_type;location;lat;lon;timestamp;temperature;humidity
16392;DHT22;8305;-33.882;151.134;2022-10-23T00:00:01;20.50;99.90
16392;DHT22;8305;-33.882;151.134;2022-10-23T00:02:32;20.50;99.90
16392;DHT22;8305;-33.882;151.134;2022-10-23T00:05:03;20.40;99.90
16392;DHT22;8305;-33.882;151.134;2022-10-23T00:07:34;20.40;99.90
16392;DHT22;8305;-33.882;151.134;2022-10-23T00:10:05;20.30;99.90
16392;DHT22;8305;-33.882;151.134;2022-10-23T00:12:36;20.20;99.90
16392;DHT22;8305;-33.882;151.134;2022-10-23T00:15:09;20.10;99.90
16392;DHT22;8305;-33.882;151.134;2022-10-23T00:17:40;20.10;99.90
16392;DHT22;8305;-33.882;151.134;2022-10-23T00:20:12;20.00;99.90
16392;DHT22;8305;-33.882;151.134;2022-10-23T00:22:43;20.00;99.90
16392;DHT22;8305;-33.882;151.134;2022-10-23T00:25:14;20.00;99.90
16392;DHT22;8305;-33.882;151.134;2022-10-23T00:27:45;19.80;99.90
16392;DHT22;8305;-33.882;151.134;2022-10-23T00:30:18;19.80;99.90
16392;DHT22;8305;-33.882;151.134;2022-10-23T00:32:48;19.70;99.90
16392;DHT22;8305;-33.882;151.134;2022-10-23T00:35:19;19.60;99.90
16392;DHT22;8305;-33.882;151.134;2022-10-23T00:37:50;19.50;99.90
16392;DHT22;8305;-33.882;151.134;2022-10-23T00:40:21;19.50;99.90
16392;DHT22;8305;-33.882;151.134;2022-10-23T00:42:51;19.60;99.90
16392;DHT22;8305;-33.882;151.134;2022-10-23T00:45:26;19.60;99.90
16392;DHT22;8305;-33.882;151.134;2022-10-23T00:47:58;19.70;99.90
16392;DHT22;8305;-33.882;151.134;2022-10-23T00:50:31;19.90;99.90
16392;DHT22;8305;-33.882;151.134;2022-10-23T00:53:03;20.00;99.90
16392;DHT22;8305;-33.882;151.134;2022-10-23T00:55:36;20.10;99.90
16392;DHT22;8305;-33.882;151.134;2022-10-23T00:58:09;20.10;99.90
16392;DHT22;8305;-33.882;151.134;2022-10-23T01:00:48;20.20;99.90
16392;DHT22;8305;-33.882;151.134;2022-10-23T01:03:20;20.20;99.90
16392;DHT22;8305;-33.882;151.134;2022-10-23T01:05:56;20.20;99.90
16392;DHT22;8305;-33.882;151.134;2022-10-23T01:08:32;20.20;99.90
16392;DHT22;8305;-33.882;151.134;2022-10-23T01:11:08;20.40;99.90
16392;DHT22;8305;-33.882;151.134;2022-10-23T01:13:44;20.60;99.90
16392;DHT22;8305;-33.882;151.134;2022-10-23T01:16:23;20.80;99.90
16392;DHT22;8305;-33.882;151.134;2022-10-23T01:19:00;21.00;99.90
16392;DHT22;8305;-33.882;151.134;2022-10-23T01:21:41;21.20;99.90
16392;DHT22;8305;-33.882;151.134;2022-10-23T01:24:34;21.40;99.90
16392;DHT22;8305;-33.882;151.134;2022-10-23T01:27:23;21.50;99.90
16392;DHT22;8305;-33.882;151.134;2022-10-23T01:30:05;21.60;99.90
16392;DHT22;8305;-33.882;151.134;2022-10-23T01:32:43;21.60;99.90
16392;DHT22;8305;-33.882;151.134;2022-10-23T01:35:18;21.70;99.90
16392;DHT22;8305;-33.882;151.134;2022-10-23T01:37:53;21.60;99.90
16392;DHT22;8305;-33.882;151.134;2022-10-23T01:40:29;21.80;99.90
16392;DHT22;8305;-33.882;151.134;2022-10-23T01:43:06;22.00;99.90
16392;DHT22;8305;-33.882;151.134;2022-10-23T01:45:40;22.00;99.90
16392;DHT22;8305;-33.882;151.134;2022-10-23T01:48:14;22.10;99.90
16392;DHT22;8305;-33.882;151.134;2022-10-23T01:50:46;22.20;99.90
16392;DHT22;8305;-33.882;151.134;2022-10-23T01:53:18;22.30;99.90
16392;DHT22;8305;-33.882;151.134;2022-10-23T01:55:51;22.40;99.90
16392;DHT22;8305;-33.882;151.134;2022-10-23T01:58:25;22.40;99.90
16392;DHT22;8305;-33.882;151.134;2022-10-23T02:01:02;22.50;99.90
16392;DHT22;8305;-33.882;151.134;2022-10-23T02:03:36;22.50;99.90
16392;DHT22;8305;-33.882;151.134;2022-10-23T02:06:08;22.50;99.90
16392;DHT22;8305;-33.882;151.134;2022-10-23T02:08:38;22.40;99.90
16392;DHT22;8305;-33.882;151.134;2022-10-23T02:11:11;22.10;99.90
16392;DHT22;8305;-33.882;151.134;2022-10-23T02:13:48;22.00;99.90
16392;DHT22;8305;-33.882;151.134;2022-10-23T02:16:28;21.80;99.90
16392;DHT22;8305;-33.882;151.134;2022-10-23T02:19:07;21.70;99.90
16392;DHT22;8305;-33.882;151.134;2022-10-23T02:21:49;21.60;99.90
16392;DHT22;8305;-33.882;151.134;2022-10-23T02:24:24;21.60;99.90
16392;DHT22;8305;-33.882;151.134;2022-10-23T02:27:00;21.50;99.90
16392;DHT22;8305;-33.882;151.134;2022-10-23T02:29:35;21.60;99.90
16392;DHT22;8305;-33.882;151.134;2022-10-23T02:32:09;21.50;99.90
16392;DHT22;8305;-33.882;151.134;2022-10-23T02:34:40;21.50;99.90
16392;DHT22;8305;-33.882;151.134;2022-10-23T02:37:11;21.50;99.90
16392;DHT22;8305;-33.882;151.134;2022-10-23T02:39:42;21.40;99.90
16392;DHT22;8305;-33.882;151.134;2022-10-23T02:42:17;21.50;99.90
16392;DHT22;8305;-33.882;151.134;2022-10-23T02:44:58;21.50;99.90
16392;DHT22;8305;-33.882;151.134;2022-10-23T02:47:41;21.50;99.90
16392;DHT22;8305;-33.882;151.134;2022-10-23T02:50:20;21.50;99.90
16392;DHT22;8305;-33.882;151.134;2022-10-23T02:53:01;21.50;99.90
16392;DHT22;8305;-33.882;151.134;2022-10-23T02:55:42;21.60;99.90
16392;DHT22;8305;-33.882;151.134;2022-10-23T02:58:19;21.60;99.90
16392;DHT22;8305;-33.882;151.134;2022-10-23T03:00:58;21.50;99.90
16392;DHT22;8305;-33.882;151.134;2022-10-23T03:03:34;21.50;99.90
16392;DHT22;8305;-33.882;151.134;2022-10-23T03:06:05;21.40;99.90
16392;DHT22;8305;-33.882;151.134;2022-10-23T03:08:51;21.40;99.90
16392;DHT22;8305;-33.882;151.134;2022-10-23T03:11:22;21.30;99.90
16392;DHT22;8305;-33.882;151.134;2022-10-23T03:13:53;21.30;99.90
16392;DHT22;8305;-33.882;151.134;2022-10-23T03:16:26;21.30;99.90
16392;DHT22;8305;-33.882;151.134;2022-10-23T03:18:56;21.20;99.90
16392;DHT22;8305;-33.882;151.134;2022-10-23T03:21:27;21.10;99.90
16392;DHT22;8305;-33.882;151.134;2022-10-23T03:23:58;21.10;99.90
16392;DHT22;8305;-33.882;151.134;2022-10-23T03:26:28;21.00;99.90
16392;DHT22;8305;-33.882;151.134;2022-10-23T03:28:59;21.00;99.90
16392;DHT22;8305;-33.882;151.134;2022-10-23T03:31:32;21.00;99.90
16392;DHT22;8305;-33.882;151.134;2022-10-23T03:34:02;21.00;99.90
16392;DHT22;8305;-33.882;151.134;2022-10-23T03:36:37;21.00;99.90
16392;DHT22;8305;-33.882;151.134;2022-10-23T03:39:08;20.90;99.90
16392;DHT22;8305;-33.882;151.134;2022-10-23T03:41:39;20.90;99.90
16392;DHT22;8305;-33.882;151.134;2022-10-23T03:44:10;20.80;99.90
16392;DHT22;8305;-33.882;151.134;2022-10-23T03:46:42;20.70;99.90
16392;DHT22;8305;-33.882;151.134;2022-10-23T03:49:13;20.60;99.90
16392;DHT22;8305;-33.882;151.134;2022-10-23T03:51:44;20.50;99.90
16392;DHT22;8305;-33.882;151.134;2022-10-23T03:54:20;20.50;99.90
16392;DHT22;8305;-33.882;151.134;2022-10-23T03:56:52;20.40;99.90
16392;DHT22;8305;-33.882;151.134;2022-10-23T03:59:23;20.30;99.90
16392;DHT22;8305;-33.882;151.134;2022-10-23T04:01:56;20.30;99.90
16392;DHT22;8305;-33.882;151.134;2022-10-23T04:04:27;20.20;99.90
16392;DHT22;8305;-33.882;151.134;2022-10-23T04:06:57;20.20;99.90
16392;DHT22;8305;-33.882;151.134;2022-10-23T04:09:28;20.20;99.90
16392;DHT22;8305;-33.882;151.134;2022-10-23T04:11:59;20.10;99.90
16392;DHT22;8305;-33.882;151.134;2022-10-23T04:14:30;20.10;99.90
16392;DHT22;8305;-33.882;151.134;2022-10-23T04:17:02;20.00;99.90
16392;DHT22;8305;-33.882;151.134;2022-10-23T04:19:33;20.00;99.90
16392;DHT22;8305;-33.882;151.134;2022-10-23T04:22:04;20.00;99.90
16392;DHT22;8305;-33.882;151.134;2022-10-23T04:24:35;19.90;99.90
16392;DHT22;8305;-33.882;151.134;2022-10-23T04:27:05;19.90;99.90
16392;DHT22;8305;-33.882;151.134;2022-10-23T04:29:36;19.80;99.90
16392;DHT22;8305;-33.882;151.134;2022-10-23T04:32:09;19.70;99.90
16392;DHT22;8305;-33.882;151.134;2022-10-23T04:34:40;19.70;99.90
16392;DHT22;8305;-33.882;151.134;2022-10-23T04:37:10;19.70;99.90
16392;DHT22;8305;-33.882;151.134;2022-10-23T04:39:41;19.60;99.90
16392;DHT22;8305;-33.882;151.134;2022-10-23T04:42:12;19.60;99.90
16392;DHT22;8305;-33.882;151.134;2022-10-23T04:44:43;19.60;99.90
16392;DHT22;8305;-33.882;151.134;2022-10-23T04:47:15;19.60;99.90
16392;DHT22;8305;-33.882;151.134;2022-10-23T04:49:46;19.50;99.90
16392;DHT22;8305;-33.882;151.134;2022-10-23T04:52:17;19.40;99.90
16392;DHT22;8305;-33.882;151.134;2022-10-23T04:54:48;19.40;99.90
16392;DHT22;8305;-33.882;151.134;2022-10-23T04:57:18;19.40;99.90
16392;DHT22;8305;-33.882;151.134;2022-10-23T04:59:49;19.40;99.90
16392;DHT22;8305;-33.882;151.134;2022-10-23T05:02:22;19.30;99.90
16392;DHT22;8305;-33.882;151.134;2022-10-23T05:04:54;19.20;99.90
16392;DHT22;8305;-33.882;151.134;2022-10-23T05:07:25;19.20;99.90
16392;DHT22;8305;-33.882;151.134;2022-10-23T05:09:55;19.20;99.90
16392;DHT22;8305;-33.882;151.134;2022-10-23T05:12:26;19.20;99.90
16392;DHT22;8305;-33.882;151.134;2022-10-23T05:14:57;19.20;99.90
16392;DHT22;8305;-33.882;151.134;2022-10-23T05:17:33;19.30;99.90
16392;DHT22;8305;-33.882;151.134;2022-10-23T05:20:06;19.20;99.90
16392;DHT22;8305;-33.882;151.134;2022-10-23T05:22:40;19.30;99.90
16392;DHT22;8305;-33.882;151.134;2022-10-23T05:25:12;19.30;99.90
16392;DHT22;8305;-33.882;151.134;2022-10-23T05:27:44;19.30;99.90
16392;DHT22;8305;-33.882;151.134;2022-10-23T05:30:14;19.30;99.90
16392;DHT22;8305;-33.882;151.134;2022-10-23T05:32:48;19.30;99.90
16392;DHT22;8305;-33.882;151.134;2022-10-23T05:35:22;19.40;99.90
16392;DHT22;8305;-33.882;151.134;2022-10-23T05:37:54;19.30;99.90
16392;DHT22;8305;-33.882;151.134;2022-10-23T05:40:27;19.30;99.90
16392;DHT22;8305;-33.882;151.134;2022-10-23T05:42:57;19.30;99.90
16392;DHT22;8305;-33.882;151.134;2022-10-23T05:45:28;19.30;99.90
16392;DHT22;8305;-33.882;151.134;2022-10-23T05:48:02;19.30;99.90
16392;DHT22;8305;-33.882;151.134;2022-10-23T05:50:35;19.30;99.90
16392;DHT22;8305;-33.882;151.134;2022-10-23T05:53:08;19.30;99.90
16392;DHT22;8305;-33.882;151.134;2022-10-23T05:55:39;19.40;99.90
16392;DHT22;8305;-33.882;151.134;2022-10-23T05:58:09;19.40;99.90
16392;DHT22;8305;-33.882;151.134;2022-10-23T06:00:40;19.40;99.90
16392;DHT22;8305;-33.882;151.134;2022-10-23T06:03:14;19.40;99.90
16392;DHT22;8305;-33.882;151.134;2022-10-23T06:05:50;19.40;99.90
16392;DHT22;8305;-33.882;151.134;2022-10-23T06:08:25;19.40;99.90
16392;DHT22;8305;-33.882;151.134;2022-10-23T06:10:57;19.40;99.90
16392;DHT22;8305;-33.882;151.134;2022-10-23T06:13:27;19.40;99.90
16392;DHT22;8305;-33.882;151.134;2022-10-23T06:15:58;19.50;99.90
16392;DHT22;8305;-33.882;151.134;2022-10-23T06:18:31;19.50;99.90
16392;DHT22;8305;-33.882;151.134;2022-10-23T06:21:02;19.50;99.90
16392;DHT22;8305;-33.882;151.134;2022-10-23T06:23:33;19.60;99.90
16392;DHT22;8305;-33.882;151.134;2022-10-23T06:26:05;19.60;99.90
16392;DHT22;8305;-33.882;151.134;2022-10-23T06:28:36;19.50;99.90
16392;DHT22;8305;-33.882;151.134;2022-10-23T06:31:07;19.50;99.90
16392;DHT22;8305;-33.882;151.134;2022-10-23T06:33:41;19.50;99.90
16392;DHT22;8305;-33.882;151.134;2022-10-23T06:36:11;19.40;99.90
16392;DHT22;8305;-33.882;151.134;2022-10-23T06:38:42;19.40;99.90
16392;DHT22;8305;-33.882;151.134;2022-10-23T06:41:15;19.50;99.90
16392;DHT22;8305;-33.882;151.134;2022-10-23T06:43:48;19.50;99.90
16392;DHT22;8305;-33.882;151.134;2022-10-23T06:46:19;19.50;99.90
16392;DHT22;8305;-33.882;151.134;2022-10-23T06:48:52;19.50;99.90
16392;DHT22;8305;-33.882;151.134;2022-10-23T06:51:22;19.50;99.90
16392;DHT22;8305;-33.882;151.134;2022-10-23T06:53:56;19.50;99.90
16392;DHT22;8305;-33.882;151.134;2022-10-23T06:56:27;19.40;99.90
16392;DHT22;8305;-33.882;151.134;2022-10-23T06:58:57;19.40;99.90
16392;DHT22;8305;-33.882;151.134;2022-10-23T07:01:28;19.50;99.90
16392;DHT22;8305;-33.882;151.134;2022-10-23T07:04:01;19.50;99.90
16392;DHT22;8305;-33.882;151.134;2022-10-23T07:06:32;19.50;99.90
16392;DHT22;8305;-33.882;151.134;2022-10-23T07:09:02;19.40;99.90
16392;DHT22;8305;-33.882;151.134;2022-10-23T07:11:33;19.40;99.90
16392;DHT22;8305;-33.882;151.134;2022-10-23T07:14:04;19.40;99.90
16392;DHT22;8305;-33.882;151.134;2022-10-23T07:16:35;19.40;99.90
16392;DHT22;8305;-33.882;151.134;2022-10-23T07:19:07;19.30;99.90
16392;DHT22;8305;-33.882;151.134;2022-10-23T07:21:38;19.20;99.90
16392;DHT22;8305;-33.882;151.134;2022-10-23T07:24:09;19.20;99.90
16392;DHT22;8305;-33.882;151.134;2022-10-23T07:26:40;19.10;99.90
16392;DHT22;8305;-33.882;151.134;2022-10-23T07:29:11;19.10;99.90
16392;DHT22;8305;-33.882;151.134;2022-10-23T07:31:42;19.10;99.90
16392;DHT22;8305;-33.882;151.134;2022-10-23T07:34:15;19.00;99.90
16392;DHT22;8305;-33.882;151.134;2022-10-23T07:36:47;19.00;99.90
16392;DHT22;8305;-33.882;151.134;2022-10-23T07:39:18;18.90;99.90
16392;DHT22;8305;-33.882;151.134;2022-10-23T07:41:50;18.90;99.90
16392;DHT22;8305;-33.882;151.134;2022-10-23T07:44:22;18.90;99.90
16392;DHT22;8305;-33.882;151.134;2022-10-23T07:46:55;18.80;99.90
16392;DHT22;8305;-33.882;151.134;2022-10-23T07:49:28;18.80;99.90
16392;DHT22;8305;-33.882;151.134;2022-10-23T07:51:59;18.80;99.90
16392;DHT22;8305;-33.882;151.134;2022-10-23T07:54:30;18.70;99.90
16392;DHT22;8305;-33.882;151.134;2022-10-23T07:57:01;18.70;99.90
16392;DHT22;8305;-33.882;151.134;2022-10-23T07:59:32;18.70;99.90
16392;DHT22;8305;-33.882;151.134;2022-10-23T08:02:03;18.70;99.90
16392;DHT22;8305;-33.882;151.134;2022-10-23T08:04:36;18.70;99.90
16392;DHT22;8305;-33.882;151.134;2022-10-23T08:07:07;18.70;99.90
16392;DHT22;8305;-33.882;151.134;2022-10-23T08:09:37;18.70;99.90
16392;DHT22;8305;-33.882;151.134;2022-10-23T08:12:09;18.60;99.90
16392;DHT22;8305;-33.882;151.134;2022-10-23T08:14:40;18.60;99.90
16392;DHT22;8305;-33.882;151.134;2022-10-23T08:17:11;18.60;99.90
16392;DHT22;8305;-33.882;151.134;2022-10-23T08:19:43;18.60;99.90
16392;DHT22;8305;-33.882;151.134;2022-10-23T08:22:15;18.60;99.90
16392;DHT22;8305;-33.882;151.134;2022-10-23T08:24:45;18.60;99.90
16392;DHT22;8305;-33.882;151.134;2022-10-23T08:27:16;18.50;99.90
16392;DHT22;8305;-33.882;151.134;2022-10-23T08:29:49;18.50;99.90
16392;DHT22;8305;-33.882;151.134;2022-10-23T08:32:20;18.60;99.90
16392;DHT22;8305;-33.882;151.134;2022-10-23T08:34:53;18.60;99.90
16392;DHT22;8305;-33.882;151.134;2022-10-23T08:37:23;18.60;99.90
16392;DHT22;8305;-33.882;151.134;2022-10-23T08:39:55;18.50;99.90
16392;DHT22;8305;-33.882;151.134;2022-10-23T08:42:27;18.50;99.90
16392;DHT22;8305;-33.882;151.134;2022-10-23T08:45:03;18.50;99.90
16392;DHT22;8305;-33.882;151.134;2022-10-23T08:47:39;18.50;99.90
16392;DHT22;8305;-33.882;151.134;2022-10-23T08:50:18;18.60;99.90
16392;DHT22;8305;-33.882;151.134;2022-10-23T08:52:57;18.50;99.90
16392;DHT22;8305;-33.882;151.134;2022-10-23T08:55:32;18.60;99.90
16392;DHT22;8305;-33.882;151.134;2022-10-23T08:58:07;18.50;99.90
16392;DHT22;8305;-33.882;151.134;2022-10-23T09:00:42;18.60;99.90
16392;DHT22;8305;-33.882;151.134;2022-10-23T09:03:13;18.60;99.90
16392;DHT22;8305;-33.882;151.134;2022-10-23T09:06:05;18.60;99.90
16392;DHT22;8305;-33.882;151.134;2022-10-23T09:08:46;18.60;99.90
16392;DHT22;8305;-33.882;151.134;2022-10-23T09:11:25;18.60;99.90
16392;DHT22;8305;-33.882;151.134;2022-10-23T09:14:24;18.60;99.90
16392;DHT22;8305;-33.882;151.134;2022-10-23T09:17:07;18.60;99.90
16392;DHT22;8305;-33.882;151.134;2022-10-23T09:19:40;18.60;99.90
16392;DHT22;8305;-33.882;151.134;2022-10-23T09:22:14;18.60;99.90
16392;DHT22;8305;-33.882;151.134;2022-10-23T09:24:45;18.60;99.90
16392;DHT22;8305;-33.882;151.134;2022-10-23T09:27:16;18.60;99.90
16392;DHT22;8305;-33.882;151.134;2022-10-23T09:29:51;18.60;99.90
16392;DHT22;8305;-33.882;151.134;2022-10-23T09:32:33;18.60;99.90
16392;DHT22;8305;-33.882;151.134;2022-10-23T09:35:05;18.70;99.90
16392;DHT22;8305;-33.882;151.134;2022-10-23T09:37:45;18.60;99.90
16392;DHT22;8305;-33.882;151.134;2022-10-23T09:40:28;18.70;99.90
16392;DHT22;8305;-33.882;151.134;2022-10-23T09:43:14;18.60;99.90
16392;DHT22;8305;-33.882;151.134;2022-10-23T09:45:57;18.60;99.90
16392;DHT22;8305;-33.882;151.134;2022-10-23T09:48:29;18.60;99.90
16392;DHT22;8305;-33.882;151.134;2022-10-23T09:51:00;18.60;99.90
16392;DHT22;8305;-33.882;151.134;2022-10-23T09:53:36;18.60;99.90
16392;DHT22;8305;-33.882;151.134;2022-10-23T09:56:24;18.60;99.90
16392;DHT22;8305;-33.882;151.134;2022-10-23T09:58:56;18.60;99.90
16392;DHT22;8305;-33.882;151.134;2022-10-23T10:01:30;18.50;99.90
16392;DHT22;8305;-33.882;151.134;2022-10-23T10:04:02;18.50;99.90
16392;DHT22;8305;-33.882;151.134;2022-10-23T10:06:33;18.60;99.90
16392;DHT22;8305;-33.882;151.134;2022-10-23T10:09:11;18.50;99.90
16392;DHT22;8305;-33.882;151.134;2022-10-23T10:11:45;18.60;99.90
16392;DHT22;8305;-33.882;151.134;2022-10-23T10:14:42;18.60;99.90
16392;DHT22;8305;-33.882;151.134;2022-10-23T10:17:21;18.60;99.90
16392;DHT22;8305;-33.882;151.134;2022-10-23T10:20:06;18.60;99.90
16392;DHT22;8305;-33.882;151.134;2022-10-23T10:22:49;18.60;99.90
16392;DHT22;8305;-33.882;151.134;2022-10-23T10:25:27;18.60;99.90
16392;DHT22;8305;-33.882;151.134;2022-10-23T10:28:08;18.60;99.90
16392;DHT22;8305;-33.882;151.134;2022-10-23T10:30:48;18.60;99.90
16392;DHT22;8305;-33.882;151.134;2022-10-23T10:33:25;18.70;99.90
16392;DHT22;8305;-33.882;151.134;2022-10-23T10:36:01;18.70;99.90
16392;DHT22;8305;-33.882;151.134;2022-10-23T10:38:45;18.60;99.90
16392;DHT22;8305;-33.882;151.134;2022-10-23T10:41:39;18.60;99.90
16392;DHT22;8305;-33.882;151.134;2022-10-23T10:44:26;18.60;99.90
16392;DHT22;8305;-33.882;151.134;2022-10-23T10:47:08;18.60;99.90
16392;DHT22;8305;-33.882;151.134;2022-10-23T10:49:48;18.60;99.90
16392;DHT22;8305;-33.882;151.134;2022-10-23T10:52:28;18.60;99.90
16392;DHT22;8305;-33.882;151.134;2022-10-23T10:55:14;18.70;99.90
16392;DHT22;8305;-33.882;151.134;2022-10-23T10:57:51;18.60;99.90
16392;DHT22;8305;-33.882;151.134;2022-10-23T11:00:26;18.60;99.90
16392;DHT22;8305;-33.882;151.134;2022-10-23T11:03:01;18.60;99.90
16392;DHT22;8305;-33.882;151.134;2022-10-23T11:05:40;18.60;99.90
16392;DHT22;8305;-33.882;151.134;2022-10-23T11:08:14;18.60;99.90
16392;DHT22;8305;-33.882;151.134;2022-10-23T11:10:51;18.60;99.90
16392;DHT22;8305;-33.882;151.134;2022-10-23T11:13:27;18.60;99.90
16392;DHT22;8305;-33.882;151.134;2022-10-23T11:16:00;18.60;99.90
16392;DHT22;8305;-33.882;151.134;2022-10-23T11:18:35;18.60;99.90
16392;DHT22;8305;-33.882;151.134;2022-10-23T11:21:19;18.60;99.90
16392;DHT22;8305;-33.882;151.134;2022-10-23T11:24:32;18.60;99.90
16392;DHT22;8305;-33.882;151.134;2022-10-23T11:27:23;18.60;99.90
16392;DHT22;8305;-33.882;151.134;2022-10-23T11:30:10;18.50;99.90
16392;DHT22;8305;-33.882;151.134;2022-10-23T11:33:19;18.60;99.90
16392;DHT22;8305;-33.882;151.134;2022-10-23T11:36:04;18.60;99.90
16392;DHT22;8305;-33.882;151.134;2022-10-23T11:38:37;18.60;99.90
16392;DHT22;8305;-33.882;151.134;2022-10-23T11:41:19;18.50;99.90
16392;DHT22;8305;-33.882;151.134;2022-10-23T11:43:51;18.60;99.90
16392;DHT22;8305;-33.882;151.134;2022-10-23T11:46:33;18.60;99.90
16392;DHT22;8305;-33.882;151.134;2022-10-23T11:49:17;18.60;99.90
16392;DHT22;8305;-33.882;151.134;2022-10-23T11:52:00;18.60;99.90
16392;DHT22;8305;-33.882;151.134;2022-10-23T11:54:30;18.60;99.90
16392;DHT22;8305;-33.882;151.134;2022-10-23T11:57:12;18.60;99.90
16392;DHT22;8305;-33.882;151.134;2022-10-23T11:59:51;18.60;99.90
16392;DHT22;8305;-33.882;151.134;2022-10-23T12:02:29;18.60;99.90
16392;DHT22;8305;-33.882;151.134;2022-10-23T12:05:03;18.60;99.90
16392;DHT22;8305;-33.882;151.134;2022-10-23T12:07:36;18.60;99.90
16392;DHT22;8305;-33.882;151.134;2022-10-23T12:10:19;18.60;99.90
16392;DHT22;8305;-33.882;151.134;2022-10-23T12:12:56;18.60;99.90
16392;DHT22;8305;-33.882;151.134;2022-10-23T12:15:28;18.60;99.90
16392;DHT22;8305;-33.882;151.134;2022-10-23T12:18:15;18.60;99.90
16392;DHT22;8305;-33.882;151.134;2022-10-23T12:20:50;18.60;99.90
16392;DHT22;8305;-33.882;151.134;2022-10-23T12:23:44;18.60;99.90
16392;DHT22;8305;-33.882;151.134;2022-10-23T12:26:47;18.60;99.90
16392;DHT22;8305;-33.882;151.134;2022-10-23T12:29:32;18.60;99.90
16392;DHT22;8305;-33.882;151.134;2022-10-23T12:32:20;18.70;99.90
16392;DHT22;8305;-33.882;151.134;2022-10-23T12:35:08;18.70;99.90
16392;DHT22;8305;-33.882;151.134;2022-10-23T12:37:51;18.70;99.90
16392;DHT22;8305;-33.882;151.134;2022-10-23T12:40:25;18.70;99.90
16392;DHT22;8305;-33.882;151.134;2022-10-23T12:42:58;18.70;99.90
16392;DHT22;8305;-33.882;151.134;2022-10-23T12:45:30;18.70;99.90
16392;DHT22;8305;-33.882;151.134;2022-10-23T12:48:02;18.70;99.90
16392;DHT22;8305;-33.882;151.134;2022-10-23T12:50:35;18.70;99.90
16392;DHT22;8305;-33.882;151.134;2022-10-23T12:53:14;18.70;99.90
16392;DHT22;8305;-33.882;151.134;2022-10-23T12:55:50;18.70;99.90
16392;DHT22;8305;-33.882;151.134;2022-10-23T12:58:23;18.70;99.90
16392;DHT22;8305;-33.882;151.134;2022-10-23T13:00:55;18.80;99.90
16392;DHT22;8305;-33.882;151.134;2022-10-23T13:03:27;18.80;99.90
16392;DHT22;8305;-33.882;151.134;2022-10-23T13:06:01;18.80;99.90
16392;DHT22;8305;-33.882;151.134;2022-10-23T13:08:36;18.80;99.90
16392;DHT22;8305;-33.882;151.134;2022-10-23T13:11:11;18.80;99.90
16392;DHT22;8305;-33.882;151.134;2022-10-23T13:13:43;18.80;99.90
16392;DHT22;8305;-33.882;151.134;2022-10-23T13:16:16;18.90;99.90
16392;DHT22;8305;-33.882;151.134;2022-10-23T13:18:47;18.80;99.90
16392;DHT22;8305;-33.882;151.134;2022-10-23T13:21:21;18.90;99.90
16392;DHT22;8305;-33.882;151.134;2022-10-23T13:23:52;18.90;99.90
16392;DHT22;8305;-33.882;151.134;2022-10-23T13:26:31;18.90;99.90
16392;DHT22;8305;-33.882;151.134;2022-10-23T13:29:03;18.90;99.90
16392;DHT22;8305;-33.882;151.134;2022-10-23T13:31:46;18.90;99.90
16392;DHT22;8305;-33.882;151.134;2022-10-23T13:34:24;19.00;99.90
16392;DHT22;8305;-33.882;151.134;2022-10-23T13:37:01;19.00;99.90
16392;DHT22;8305;-33.882;151.134;2022-10-23T13:39:33;19.00;99.90
16392;DHT22;8305;-33.882;151.134;2022-10-23T13:42:13;19.00;99.90
16392;DHT22;8305;-33.882;151.134;2022-10-23T13:44:44;19.00;99.90
16392;DHT22;8305;-33.882;151.134;2022-10-23T13:47:16;19.00;99.90
16392;DHT22;8305;-33.882;151.134;2022-10-23T13:49:46;19.00;99.90
16392;DHT22;8305;-33.882;151.134;2022-10-23T13:52:20;19.00;99.90
16392;DHT22;8305;-33.882;151.134;2022-10-23T13:54:52;19.00;99.90
16392;DHT22;8305;-33.882;151.134;2022-10-23T13:57:23;19.00;99.90
16392;DHT22;8305;-33.882;151.134;2022-10-23T13:59:53;19.00;99.90
16392;DHT22;8305;-33.882;151.134;2022-10-23T14:02:24;19.00;99.90
16392;DHT22;8305;-33.882;151.134;2022-10-23T14:04:55;19.00;99.90
16392;DHT22;8305;-33.882;151.134;2022-10-23T14:07:27;19.00;99.90
16392;DHT22;8305;-33.882;151.134;2022-10-23T14:09:58;19.00;99.90
16392;DHT22;8305;-33.882;151.134;2022-10-23T14:12:29;19.00;99.90
16392;DHT22;8305;-33.882;151.134;2022-10-23T14:14:59;19.00;99.90
16392;DHT22;8305;-33.882;151.134;2022-10-23T14:17:30;19.00;99.90
16392;DHT22;8305;-33.882;151.134;2022-10-23T14:20:01;19.00;99.90
16392;DHT22;8305;-33.882;151.134;2022-10-23T14:22:34;19.00;99.90
16392;DHT22;8305;-33.882;151.134;2022-10-23T14:25:05;19.00;99.90
16392;DHT22;8305;-33.882;151.134;2022-10-23T14:27:36;19.00;99.90
16392;DHT22;8305;-33.882;151.134;2022-10-23T14:30:07;18.90;99.90
16392;DHT22;8305;-33.882;151.134;2022-10-23T14:32:38;18.90;99.90
16392;DHT22;8305;-33.882;151.134;2022-10-23T14:35:09;18.90;99.90
16392;DHT22;8305;-33.882;151.134;2022-10-23T14:37:42;18.80;99.90
16392;DHT22;8305;-33.882;151.134;2022-10-23T14:40:13;18.90;99.90
16392;DHT22;8305;-33.882;151.134;2022-10-23T14:42:43;18.80;99.90
16392;DHT22;8305;-33.882;151.134;2022-10-23T14:45:14;18.70;99.90
16392;DHT22;8305;-33.882;151.134;2022-10-23T14:47:45;18.70;99.90
16392;DHT22;8305;-33.882;151.134;2022-10-23T14:50:16;18.60;99.90
16392;DHT22;8305;-33.882;151.134;2022-10-23T14:52:48;18.50;99.90
16392;DHT22;8305;-33.882;151.134;2022-10-23T14:55:19;18.50;99.90
16392;DHT22;8305;-33.882;151.134;2022-10-23T14:57:54;18.30;99.90
16392;DHT22;8305;-33.882;151.134;2022-10-23T15:00:25;18.10;99.90
16392;DHT22;8305;-33.882;151.134;2022-10-23T15:02:56;18.00;99.90
16392;DHT22;8305;-33.882;151.134;2022-10-23T15:05:28;17.90;99.90
16392;DHT22;8305;-33.882;151.134;2022-10-23T15:08:00;17.70;99.90
16392;DHT22;8305;-33.882;151.134;2022-10-23T15:10:31;17.70;99.90
16392;DHT22;8305;-33.882;151.134;2022-10-23T15:13:02;17.60;99.90
16392;DHT22;8305;-33.882;151.134;2022-10-23T15:15:33;17.60;99.90
16392;DHT22;8305;-33.882;151.134;2022-10-23T15:18:03;17.50;99.90
16392;DHT22;8305;-33.882;151.134;2022-10-23T15:20:34;17.50;99.90
16392;DHT22;8305;-33.882;151.134;2022-10-23T15:23:07;17.40;99.90
16392;DHT22;8305;-33.882;151.134;2022-10-23T15:25:38;17.30;99.90
16392;DHT22;8305;-33.882;151.134;2022-10-23T15:28:08;17.30;99.90
16392;DHT22;8305;-33.882;151.134;2022-10-23T15:30:39;17.40;99.90
16392;DHT22;8305;-33.882;151.134;2022-10-23T15:33:12;17.30;99.90
16392;DHT22;8305;-33.882;151.134;2022-10-23T15:35:43;17.40;99.90
16392;DHT22;8305;-33.882;151.134;2022-10-23T15:38:15;17.40;99.90
16392;DHT22;8305;-33.882;151.134;2022-10-23T15:40:46;17.50;99.90
16392;DHT22;8305;-33.882;151.134;2022-10-23T15:43:17;17.50;99.90
16392;DHT22;8305;-33.882;151.134;2022-10-23T15:45:48;17.60;99.90